sensor_id;sensor_type;location;lat;lon;timestamp;P1;durP1;ratioP1;P2;durP2;ratioP2
15354;SDS011;7777;52.254;9.618;2023-12-20T00:01:34;5.60;;;3.60;;
15354;SDS011;7777;52.254;9.618;2023-12-20T00:04:01;9.57;;;3.30;;
15354;SDS011;7777;52.254;9.618;2023-12-20T00:06:29;5.23;;;3.97;;
15354;SDS011;7777;52.254;9.618;2023-12-20T00:08:55;8.07;;;3.50;;
15354;SDS011;7777;52.254;9.618;2023-12-20T00:11:22;7.03;;;3.50;;
15354;SDS011;7777;52.254;9.618;2023-12-20T00:13:49;5.47;;;3.53;;
15354;SDS011;7777;52.254;9.618;2023-12-20T00:16:15;7.57;;;3.73;;
15354;SDS011;7777;52.254;9.618;2023-12-20T00:18:40;8.03;;;3.57;;
15354;SDS011;7777;52.254;9.618;2023-12-20T00:21:06;10.00;;;3.83;;
15354;SDS011;7777;52.254;9.618;2023-12-20T00:23:32;7.87;;;3.97;;
15354;SDS011;7777;52.254;9.618;2023-12-20T00:25:58;7.37;;;4.40;;
15354;SDS011;7777;52.254;9.618;2023-12-20T00:28:24;6.07;;;4.07;;
15354;SDS011;7777;52.254;9.618;2023-12-20T00:30:49;4.57;;;3.40;;
15354;SDS011;7777;52.254;9.618;2023-12-20T00:33:15;5.13;;;3.60;;
15354;SDS011;7777;52.254;9.618;2023-12-20T00:35:40;5.53;;;3.60;;
15354;SDS011;7777;52.254;9.618;2023-12-20T00:38:06;9.23;;;3.63;;
15354;SDS011;7777;52.254;9.618;2023-12-20T00:40:33;7.13;;;3.63;;
15354;SDS011;7777;52.254;9.618;2023-12-20T00:42:59;9.67;;;3.50;;
15354;SDS011;7777;52.254;9.618;2023-12-20T00:45:25;8.33;;;3.33;;
15354;SDS011;7777;52.254;9.618;2023-12-20T00:47:52;5.60;;;2.47;;
15354;SDS011;7777;52.254;9.618;2023-12-20T00:50:18;7.50;;;2.57;;
15354;SDS011;7777;52.254;9.618;2023-12-20T00:52:45;9.93;;;2.87;;
15354;SDS011;7777;52.254;9.618;2023-12-20T00:55:11;6.30;;;2.27;;
15354;SDS011;7777;52.254;9.618;2023-12-20T00:57:36;4.43;;;2.00;;
15354;SDS011;7777;52.254;9.618;2023-12-20T01:00:02;7.03;;;2.07;;
15354;SDS011;7777;52.254;9.618;2023-12-20T01:02:31;6.00;;;2.40;;
15354;SDS011;7777;52.254;9.618;2023-12-20T01:04:57;7.83;;;2.20;;
15354;SDS011;7777;52.254;9.618;2023-12-20T01:07:22;9.60;;;2.37;;
15354;SDS011;7777;52.254;9.618;2023-12-20T01:09:48;10.00;;;2.30;;
15354;SDS011;7777;52.254;9.618;2023-12-20T01:12:14;8.73;;;2.03;;
15354;SDS011;7777;52.254;9.618;2023-12-20T01:14:40;9.67;;;2.03;;
15354;SDS011;7777;52.254;9.618;2023-12-20T01:17:06;9.50;;;2.10;;
15354;SDS011;7777;52.254;9.618;2023-12-20T01:19:31;9.87;;;2.33;;
15354;SDS011;7777;52.254;9.618;2023-12-20T01:21:57;6.77;;;1.90;;
15354;SDS011;7777;52.254;9.618;2023-12-20T01:24:23;5.50;;;1.83;;
15354;SDS011;7777;52.254;9.618;2023-12-20T01:26:49;5.03;;;1.60;;
15354;SDS011;7777;52.254;9.618;2023-12-20T01:29:14;10.03;;;1.87;;
15354;SDS011;7777;52.254;9.618;2023-12-20T01:31:40;6.87;;;1.93;;
15354;SDS011;7777;52.254;9.618;2023-12-20T01:34:06;7.17;;;1.90;;
15354;SDS011;7777;52.254;9.618;2023-12-20T01:36:32;7.83;;;1.80;;
15354;SDS011;7777;52.254;9.618;2023-12-20T01:38:58;5.23;;;1.63;;
15354;SDS011;7777;52.254;9.618;2023-12-20T01:41:23;7.60;;;1.70;;
15354;SDS011;7777;52.254;9.618;2023-12-20T01:43:49;6.70;;;1.97;;
15354;SDS011;7777;52.254;9.618;2023-12-20T01:46:15;6.37;;;1.80;;
15354;SDS011;7777;52.254;9.618;2023-12-20T01:48:42;8.00;;;1.53;;
15354;SDS011;7777;52.254;9.618;2023-12-20T01:51:08;7.63;;;2.20;;
15354;SDS011;7777;52.254;9.618;2023-12-20T01:53:35;8.93;;;1.73;;
15354;SDS011;7777;52.254;9.618;2023-12-20T01:56:01;9.60;;;1.93;;
15354;SDS011;7777;52.254;9.618;2023-12-20T01:58:27;7.93;;;2.03;;
15354;SDS011;7777;52.254;9.618;2023-12-20T02:00:54;7.73;;;2.00;;
15354;SDS011;7777;52.254;9.618;2023-12-20T02:03:20;11.50;;;2.00;;
15354;SDS011;7777;52.254;9.618;2023-12-20T02:05:47;6.87;;;1.43;;
15354;SDS011;7777;52.254;9.618;2023-12-20T02:08:13;9.93;;;1.70;;
15354;SDS011;7777;52.254;9.618;2023-12-20T02:10:40;8.40;;;1.87;;
15354;SDS011;7777;52.254;9.618;2023-12-20T02:13:06;9.03;;;1.90;;
15354;SDS011;7777;52.254;9.618;2023-12-20T02:15:32;9.23;;;1.70;;
15354;SDS011;7777;52.254;9.618;2023-12-20T02:17:58;7.27;;;2.17;;
15354;SDS011;7777;52.254;9.618;2023-12-20T02:20:24;5.83;;;2.10;;
15354;SDS011;7777;52.254;9.618;2023-12-20T02:22:50;4.63;;;1.40;;
15354;SDS011;7777;52.254;9.618;2023-12-20T02:25:16;7.23;;;2.10;;
15354;SDS011;7777;52.254;9.618;2023-12-20T02:27:41;7.20;;;2.33;;
15354;SDS011;7777;52.254;9.618;2023-12-20T02:30:08;12.47;;;1.80;;
15354;SDS011;7777;52.254;9.618;2023-12-20T02:32:35;5.70;;;1.77;;
15354;SDS011;7777;52.254;9.618;2023-12-20T02:35:02;6.97;;;1.47;;
15354;SDS011;7777;52.254;9.618;2023-12-20T02:37:28;8.43;;;1.87;;
15354;SDS011;7777;52.254;9.618;2023-12-20T02:39:55;7.37;;;1.70;;
15354;SDS011;7777;52.254;9.618;2023-12-20T02:42:21;8.53;;;1.53;;
15354;SDS011;7777;52.254;9.618;2023-12-20T02:44:47;7.57;;;1.60;;
15354;SDS011;7777;52.254;9.618;2023-12-20T02:47:13;6.00;;;1.17;;
15354;SDS011;7777;52.254;9.618;2023-12-20T02:49:38;6.83;;;1.60;;
15354;SDS011;7777;52.254;9.618;2023-12-20T02:52:04;6.13;;;1.20;;
15354;SDS011;7777;52.254;9.618;2023-12-20T02:54:30;2.90;;;1.57;;
15354;SDS011;7777;52.254;9.618;2023-12-20T02:56:56;6.83;;;1.53;;
15354;SDS011;7777;52.254;9.618;2023-12-20T02:59:22;5.83;;;1.30;;
15354;SDS011;7777;52.254;9.618;2023-12-20T03:01:47;9.87;;;1.63;;
15354;SDS011;7777;52.254;9.618;2023-12-20T03:04:13;8.00;;;1.70;;
15354;SDS011;7777;52.254;9.618;2023-12-20T03:06:39;6.23;;;1.43;;
15354;SDS011;7777;52.254;9.618;2023-12-20T03:09:05;6.30;;;1.40;;
15354;SDS011;7777;52.254;9.618;2023-12-20T03:11:30;6.87;;;1.40;;
15354;SDS011;7777;52.254;9.618;2023-12-20T03:13:56;4.00;;;1.50;;
15354;SDS011;7777;52.254;9.618;2023-12-20T03:16:23;10.77;;;1.93;;
15354;SDS011;7777;52.254;9.618;2023-12-20T03:18:49;7.00;;;1.60;;
15354;SDS011;7777;52.254;9.618;2023-12-20T03:21:15;7.80;;;1.70;;
15354;SDS011;7777;52.254;9.618;2023-12-20T03:23:41;7.77;;;2.03;;
15354;SDS011;7777;52.254;9.618;2023-12-20T03:26:07;6.17;;;1.43;;
15354;SDS011;7777;52.254;9.618;2023-12-20T03:28:33;5.73;;;1.50;;
15354;SDS011;7777;52.254;9.618;2023-12-20T03:30:59;8.17;;;1.83;;
15354;SDS011;7777;52.254;9.618;2023-12-20T03:33:24;5.77;;;1.30;;
15354;SDS011;7777;52.254;9.618;2023-12-20T03:35:50;12.40;;;2.60;;
15354;SDS011;7777;52.254;9.618;2023-12-20T03:38:16;9.27;;;2.07;;
15354;SDS011;7777;52.254;9.618;2023-12-20T03:40:42;3.97;;;1.50;;
15354;SDS011;7777;52.254;9.618;2023-12-20T03:43:08;8.13;;;2.13;;
15354;SDS011;7777;52.254;9.618;2023-12-20T03:45:34;6.37;;;1.33;;
15354;SDS011;7777;52.254;9.618;2023-12-20T03:48:00;7.73;;;1.67;;
15354;SDS011;7777;52.254;9.618;2023-12-20T03:50:26;8.60;;;2.03;;
15354;SDS011;7777;52.254;9.618;2023-12-20T03:52:52;7.50;;;2.00;;
15354;SDS011;7777;52.254;9.618;2023-12-20T03:55:18;10.73;;;2.23;;
15354;SDS011;7777;52.254;9.618;2023-12-20T03:57:44;12.60;;;2.17;;
15354;SDS011;7777;52.254;9.618;2023-12-20T04:00:10;7.13;;;1.30;;
15354;SDS011;7777;52.254;9.618;2023-12-20T04:02:37;7.60;;;1.20;;
15354;SDS011;7777;52.254;9.618;2023-12-20T04:05:03;7.60;;;1.63;;
15354;SDS011;7777;52.254;9.618;2023-12-20T04:07:30;9.53;;;2.00;;
15354;SDS011;7777;52.254;9.618;2023-12-20T04:09:56;9.93;;;2.00;;
15354;SDS011;7777;52.254;9.618;2023-12-20T04:12:22;8.67;;;2.47;;
15354;SDS011;7777;52.254;9.618;2023-12-20T04:14:47;7.13;;;1.80;;
15354;SDS011;7777;52.254;9.618;2023-12-20T04:17:14;9.70;;;1.77;;
15354;SDS011;7777;52.254;9.618;2023-12-20T04:19:41;10.20;;;2.20;;
15354;SDS011;7777;52.254;9.618;2023-12-20T04:22:07;6.03;;;1.80;;
15354;SDS011;7777;52.254;9.618;2023-12-20T04:24:33;6.90;;;2.30;;
15354;SDS011;7777;52.254;9.618;2023-12-20T04:26:59;6.73;;;2.17;;
15354;SDS011;7777;52.254;9.618;2023-12-20T04:29:24;9.17;;;2.43;;
15354;SDS011;7777;52.254;9.618;2023-12-20T04:31:50;13.67;;;2.50;;
15354;SDS011;7777;52.254;9.618;2023-12-20T04:34:17;10.50;;;1.97;;
15354;SDS011;7777;52.254;9.618;2023-12-20T04:36:43;19.03;;;2.20;;
15354;SDS011;7777;52.254;9.618;2023-12-20T04:39:09;8.97;;;1.97;;
15354;SDS011;7777;52.254;9.618;2023-12-20T04:41:37;9.37;;;2.13;;
15354;SDS011;7777;52.254;9.618;2023-12-20T04:44:03;7.10;;;1.67;;
15354;SDS011;7777;52.254;9.618;2023-12-20T04:46:29;16.23;;;2.50;;
15354;SDS011;7777;52.254;9.618;2023-12-20T04:48:55;8.07;;;2.40;;
15354;SDS011;7777;52.254;9.618;2023-12-20T04:51:21;11.03;;;2.67;;
15354;SDS011;7777;52.254;9.618;2023-12-20T04:53:46;11.63;;;2.20;;
15354;SDS011;7777;52.254;9.618;2023-12-20T04:56:12;12.03;;;2.00;;
15354;SDS011;7777;52.254;9.618;2023-12-20T04:58:38;10.53;;;2.60;;
15354;SDS011;7777;52.254;9.618;2023-12-20T05:01:05;13.63;;;3.33;;
15354;SDS011;7777;52.254;9.618;2023-12-20T05:03:31;14.17;;;2.57;;
15354;SDS011;7777;52.254;9.618;2023-12-20T05:05:57;9.07;;;2.40;;
15354;SDS011;7777;52.254;9.618;2023-12-20T05:08:23;13.70;;;2.67;;
15354;SDS011;7777;52.254;9.618;2023-12-20T05:10:50;14.07;;;3.17;;
15354;SDS011;7777;52.254;9.618;2023-12-20T05:13:17;12.20;;;2.70;;
15354;SDS011;7777;52.254;9.618;2023-12-20T05:15:43;16.07;;;2.50;;
15354;SDS011;7777;52.254;9.618;2023-12-20T05:18:09;15.13;;;3.20;;
15354;SDS011;7777;52.254;9.618;2023-12-20T05:20:35;10.20;;;2.63;;
15354;SDS011;7777;52.254;9.618;2023-12-20T05:23:01;11.10;;;2.90;;
15354;SDS011;7777;52.254;9.618;2023-12-20T05:25:27;7.20;;;2.87;;
15354;SDS011;7777;52.254;9.618;2023-12-20T05:27:52;10.77;;;3.17;;
15354;SDS011;7777;52.254;9.618;2023-12-20T05:30:18;18.90;;;2.90;;
15354;SDS011;7777;52.254;9.618;2023-12-20T05:32:44;14.00;;;3.07;;
15354;SDS011;7777;52.254;9.618;2023-12-20T05:35:09;13.17;;;3.33;;
15354;SDS011;7777;52.254;9.618;2023-12-20T05:37:35;19.83;;;3.20;;
15354;SDS011;7777;52.254;9.618;2023-12-20T05:40:01;12.13;;;2.87;;
15354;SDS011;7777;52.254;9.618;2023-12-20T05:42:26;15.23;;;3.10;;
15354;SDS011;7777;52.254;9.618;2023-12-20T05:44:52;11.77;;;3.00;;
15354;SDS011;7777;52.254;9.618;2023-12-20T05:47:18;15.20;;;3.03;;
15354;SDS011;7777;52.254;9.618;2023-12-20T05:49:44;16.07;;;2.60;;
15354;SDS011;7777;52.254;9.618;2023-12-20T05:52:10;10.43;;;2.67;;
15354;SDS011;7777;52.254;9.618;2023-12-20T05:54:36;10.63;;;3.17;;
15354;SDS011;7777;52.254;9.618;2023-12-20T05:57:01;11.57;;;3.17;;
15354;SDS011;7777;52.254;9.618;2023-12-20T05:59:27;10.73;;;2.67;;
15354;SDS011;7777;52.254;9.618;2023-12-20T06:01:53;10.60;;;2.20;;
15354;SDS011;7777;52.254;9.618;2023-12-20T06:04:19;14.13;;;3.60;;
15354;SDS011;7777;52.254;9.618;2023-12-20T06:06:44;9.93;;;2.63;;
15354;SDS011;7777;52.254;9.618;2023-12-20T06:09:10;13.07;;;3.20;;
15354;SDS011;7777;52.254;9.618;2023-12-20T06:11:36;21.93;;;3.83;;
15354;SDS011;7777;52.254;9.618;2023-12-20T06:14:03;14.43;;;3.73;;
15354;SDS011;7777;52.254;9.618;2023-12-20T06:16:29;14.80;;;4.13;;
15354;SDS011;7777;52.254;9.618;2023-12-20T06:18:54;13.43;;;3.57;;
15354;SDS011;7777;52.254;9.618;2023-12-20T06:21:20;23.10;;;3.70;;
15354;SDS011;7777;52.254;9.618;2023-12-20T06:23:46;12.50;;;3.50;;
15354;SDS011;7777;52.254;9.618;2023-12-20T06:26:11;17.03;;;3.50;;
15354;SDS011;7777;52.254;9.618;2023-12-20T06:28:37;14.87;;;3.33;;
15354;SDS011;7777;52.254;9.618;2023-12-20T06:31:03;12.20;;;3.10;;
15354;SDS011;7777;52.254;9.618;2023-12-20T06:33:30;14.40;;;3.80;;
15354;SDS011;7777;52.254;9.618;2023-12-20T06:35:56;10.43;;;2.73;;
15354;SDS011;7777;52.254;9.618;2023-12-20T06:38:22;10.97;;;2.43;;
15354;SDS011;7777;52.254;9.618;2023-12-20T06:40:48;16.97;;;3.90;;
15354;SDS011;7777;52.254;9.618;2023-12-20T06:43:14;14.17;;;2.93;;
15354;SDS011;7777;52.254;9.618;2023-12-20T06:45:39;18.90;;;3.30;;
15354;SDS011;7777;52.254;9.618;2023-12-20T06:48:06;10.70;;;3.07;;
15354;SDS011;7777;52.254;9.618;2023-12-20T06:50:32;8.70;;;2.70;;
15354;SDS011;7777;52.254;9.618;2023-12-20T06:52:59;10.57;;;2.30;;
15354;SDS011;7777;52.254;9.618;2023-12-20T06:55:31;16.80;;;3.07;;
15354;SDS011;7777;52.254;9.618;2023-12-20T06:58:00;21.50;;;3.50;;
15354;SDS011;7777;52.254;9.618;2023-12-20T07:00:26;11.50;;;3.87;;
15354;SDS011;7777;52.254;9.618;2023-12-20T07:02:53;14.20;;;3.07;;
15354;SDS011;7777;52.254;9.618;2023-12-20T07:05:18;12.20;;;2.80;;
15354;SDS011;7777;52.254;9.618;2023-12-20T07:07:45;12.47;;;3.60;;
15354;SDS011;7777;52.254;9.618;2023-12-20T07:10:13;16.30;;;3.63;;
15354;SDS011;7777;52.254;9.618;2023-12-20T07:12:39;15.30;;;3.33;;
15354;SDS011;7777;52.254;9.618;2023-12-20T07:15:05;16.53;;;3.93;;
15354;SDS011;7777;52.254;9.618;2023-12-20T07:17:32;17.43;;;4.37;;
15354;SDS011;7777;52.254;9.618;2023-12-20T07:19:59;13.33;;;3.50;;
15354;SDS011;7777;52.254;9.618;2023-12-20T07:22:31;14.17;;;4.40;;
15354;SDS011;7777;52.254;9.618;2023-12-20T07:24:59;11.67;;;3.20;;
15354;SDS011;7777;52.254;9.618;2023-12-20T07:27:25;16.30;;;3.50;;
15354;SDS011;7777;52.254;9.618;2023-12-20T07:29:51;11.27;;;3.43;;
15354;SDS011;7777;52.254;9.618;2023-12-20T07:32:17;12.70;;;3.73;;
15354;SDS011;7777;52.254;9.618;2023-12-20T07:34:43;11.40;;;3.10;;
15354;SDS011;7777;52.254;9.618;2023-12-20T07:37:10;13.87;;;3.73;;
15354;SDS011;7777;52.254;9.618;2023-12-20T07:39:37;13.40;;;4.10;;
15354;SDS011;7777;52.254;9.618;2023-12-20T07:42:05;9.83;;;3.00;;
15354;SDS011;7777;52.254;9.618;2023-12-20T07:44:31;20.57;;;3.80;;
15354;SDS011;7777;52.254;9.618;2023-12-20T07:47:01;14.20;;;3.63;;
15354;SDS011;7777;52.254;9.618;2023-12-20T07:49:27;13.17;;;3.67;;
15354;SDS011;7777;52.254;9.618;2023-12-20T07:51:53;12.67;;;3.40;;
15354;SDS011;7777;52.254;9.618;2023-12-20T07:54:18;18.30;;;4.10;;
15354;SDS011;7777;52.254;9.618;2023-12-20T07:56:45;17.13;;;4.17;;
15354;SDS011;7777;52.254;9.618;2023-12-20T07:59:13;20.03;;;4.37;;
15354;SDS011;7777;52.254;9.618;2023-12-20T08:01:39;19.73;;;4.03;;
15354;SDS011;7777;52.254;9.618;2023-12-20T08:04:05;14.77;;;3.73;;
15354;SDS011;7777;52.254;9.618;2023-12-20T08:06:32;12.60;;;3.83;;
15354;SDS011;7777;52.254;9.618;2023-12-20T08:08:58;12.40;;;3.03;;
15354;SDS011;7777;52.254;9.618;2023-12-20T08:11:24;15.70;;;3.27;;
15354;SDS011;7777;52.254;9.618;2023-12-20T08:13:50;11.37;;;2.97;;
15354;SDS011;7777;52.254;9.618;2023-12-20T08:16:16;12.80;;;3.43;;
15354;SDS011;7777;52.254;9.618;2023-12-20T08:18:42;13.30;;;3.83;;
15354;SDS011;7777;52.254;9.618;2023-12-20T08:21:09;14.37;;;3.77;;
15354;SDS011;7777;52.254;9.618;2023-12-20T08:23:34;14.80;;;3.97;;
15354;SDS011;7777;52.254;9.618;2023-12-20T08:26:04;9.80;;;3.80;;
15354;SDS011;7777;52.254;9.618;2023-12-20T08:28:32;13.40;;;3.20;;
15354;SDS011;7777;52.254;9.618;2023-12-20T08:30:58;15.50;;;3.87;;
15354;SDS011;7777;52.254;9.618;2023-12-20T08:33:25;10.73;;;3.30;;
15354;SDS011;7777;52.254;9.618;2023-12-20T08:35:52;19.43;;;4.40;;
15354;SDS011;7777;52.254;9.618;2023-12-20T08:38:17;13.60;;;3.73;;
15354;SDS011;7777;52.254;9.618;2023-12-20T08:40:43;10.07;;;3.50;;
15354;SDS011;7777;52.254;9.618;2023-12-20T08:43:09;12.87;;;3.63;;
15354;SDS011;7777;52.254;9.618;2023-12-20T08:45:35;18.30;;;4.33;;
15354;SDS011;7777;52.254;9.618;2023-12-20T08:48:01;16.43;;;4.27;;
15354;SDS011;7777;52.254;9.618;2023-12-20T08:50:28;15.27;;;3.50;;
15354;SDS011;7777;52.254;9.618;2023-12-20T08:52:54;12.17;;;3.17;;
15354;SDS011;7777;52.254;9.618;2023-12-20T08:55:19;12.50;;;3.30;;
15354;SDS011;7777;52.254;9.618;2023-12-20T08:57:45;10.93;;;3.77;;
15354;SDS011;7777;52.254;9.618;2023-12-20T09:00:11;7.57;;;2.90;;
15354;SDS011;7777;52.254;9.618;2023-12-20T09:02:38;16.97;;;3.30;;
15354;SDS011;7777;52.254;9.618;2023-12-20T09:05:04;19.53;;;4.10;;
15354;SDS011;7777;52.254;9.618;2023-12-20T09:07:29;11.47;;;3.30;;
15354;SDS011;7777;52.254;9.618;2023-12-20T09:09:57;15.63;;;3.77;;
15354;SDS011;7777;52.254;9.618;2023-12-20T09:12:23;13.80;;;3.97;;
15354;SDS011;7777;52.254;9.618;2023-12-20T09:14:49;13.83;;;3.83;;
15354;SDS011;7777;52.254;9.618;2023-12-20T09:17:16;21.90;;;4.03;;
15354;SDS011;7777;52.254;9.618;2023-12-20T09:19:43;13.30;;;4.23;;
15354;SDS011;7777;52.254;9.618;2023-12-20T09:22:10;16.37;;;3.73;;
15354;SDS011;7777;52.254;9.618;2023-12-20T09:24:36;11.97;;;3.27;;
15354;SDS011;7777;52.254;9.618;2023-12-20T09:27:03;18.90;;;4.07;;
15354;SDS011;7777;52.254;9.618;2023-12-20T09:29:30;19.40;;;3.70;;
15354;SDS011;7777;52.254;9.618;2023-12-20T09:31:56;21.20;;;3.37;;
15354;SDS011;7777;52.254;9.618;2023-12-20T09:34:24;14.17;;;3.07;;
15354;SDS011;7777;52.254;9.618;2023-12-20T09:36:51;12.03;;;2.97;;
15354;SDS011;7777;52.254;9.618;2023-12-20T09:39:17;16.13;;;3.17;;
15354;SDS011;7777;52.254;9.618;2023-12-20T09:41:49;14.47;;;3.30;;
15354;SDS011;7777;52.254;9.618;2023-12-20T09:44:36;10.63;;;3.03;;
15354;SDS011;7777;52.254;9.618;2023-12-20T09:47:02;14.60;;;3.80;;
15354;SDS011;7777;52.254;9.618;2023-12-20T09:49:30;12.57;;;3.63;;
15354;SDS011;7777;52.254;9.618;2023-12-20T09:51:58;14.00;;;3.30;;
15354;SDS011;7777;52.254;9.618;2023-12-20T09:54:25;14.40;;;3.90;;
15354;SDS011;7777;52.254;9.618;2023-12-20T09:56:54;11.80;;;3.30;;
15354;SDS011;7777;52.254;9.618;2023-12-20T09:59:19;13.47;;;3.43;;
15354;SDS011;7777;52.254;9.618;2023-12-20T10:01:45;17.20;;;3.93;;
15354;SDS011;7777;52.254;9.618;2023-12-20T10:04:12;13.00;;;3.27;;
15354;SDS011;7777;52.254;9.618;2023-12-20T10:06:41;9.90;;;3.30;;
15354;SDS011;7777;52.254;9.618;2023-12-20T10:09:08;10.27;;;2.60;;
15354;SDS011;7777;52.254;9.618;2023-12-20T10:11:36;13.77;;;3.40;;
15354;SDS011;7777;52.254;9.618;2023-12-20T10:14:03;13.33;;;4.23;;
15354;SDS011;7777;52.254;9.618;2023-12-20T10:16:31;13.43;;;3.73;;
15354;SDS011;7777;52.254;9.618;2023-12-20T10:18:57;8.73;;;3.13;;
15354;SDS011;7777;52.254;9.618;2023-12-20T10:21:24;13.67;;;2.77;;
15354;SDS011;7777;52.254;9.618;2023-12-20T10:23:54;13.50;;;3.80;;
15354;SDS011;7777;52.254;9.618;2023-12-20T10:26:21;12.40;;;2.90;;
15354;SDS011;7777;52.254;9.618;2023-12-20T10:28:59;20.77;;;4.20;;
15354;SDS011;7777;52.254;9.618;2023-12-20T10:31:29;13.90;;;4.20;;
15354;SDS011;7777;52.254;9.618;2023-12-20T10:33:57;14.60;;;3.33;;
15354;SDS011;7777;52.254;9.618;2023-12-20T10:36:27;19.03;;;3.93;;
15354;SDS011;7777;52.254;9.618;2023-12-20T10:38:56;9.63;;;3.27;;
15354;SDS011;7777;52.254;9.618;2023-12-20T10:41:32;12.40;;;3.47;;
15354;SDS011;7777;52.254;9.618;2023-12-20T10:43:59;14.60;;;3.57;;
15354;SDS011;7777;52.254;9.618;2023-12-20T10:46:28;11.40;;;3.73;;
15354;SDS011;7777;52.254;9.618;2023-12-20T10:48:55;9.57;;;3.27;;
15354;SDS011;7777;52.254;9.618;2023-12-20T10:51:24;14.87;;;3.73;;
15354;SDS011;7777;52.254;9.618;2023-12-20T10:53:55;14.27;;;3.93;;
15354;SDS011;7777;52.254;9.618;2023-12-20T10:56:21;13.83;;;3.20;;
15354;SDS011;7777;52.254;9.618;2023-12-20T10:58:48;10.63;;;3.27;;
15354;SDS011;7777;52.254;9.618;2023-12-20T11:01:18;16.43;;;3.70;;
15354;SDS011;7777;52.254;9.618;2023-12-20T11:03:55;8.70;;;2.57;;
15354;SDS011;7777;52.254;9.618;2023-12-20T11:06:36;10.70;;;3.20;;
15354;SDS011;7777;52.254;9.618;2023-12-20T11:09:13;8.93;;;2.83;;
15354;SDS011;7777;52.254;9.618;2023-12-20T11:14:39;7.57;;;2.70;;
15354;SDS011;7777;52.254;9.618;2023-12-20T11:17:15;11.63;;;3.63;;
15354;SDS011;7777;52.254;9.618;2023-12-20T11:22:27;10.27;;;2.77;;
15354;SDS011;7777;52.254;9.618;2023-12-20T11:25:00;9.07;;;2.60;;
15354;SDS011;7777;52.254;9.618;2023-12-20T11:27:36;13.73;;;2.80;;
15354;SDS011;7777;52.254;9.618;2023-12-20T11:30:07;8.07;;;2.60;;
15354;SDS011;7777;52.254;9.618;2023-12-20T11:32:35;10.23;;;2.60;;
15354;SDS011;7777;52.254;9.618;2023-12-20T11:37:37;12.93;;;3.47;;
15354;SDS011;7777;52.254;9.618;2023-12-20T11:40:08;14.53;;;2.60;;
15354;SDS011;7777;52.254;9.618;2023-12-20T11:42:44;11.70;;;3.40;;
15354;SDS011;7777;52.254;9.618;2023-12-20T11:45:15;9.37;;;3.30;;
15354;SDS011;7777;52.254;9.618;2023-12-20T11:47:46;13.40;;;2.70;;
15354;SDS011;7777;52.254;9.618;2023-12-20T11:50:16;7.13;;;2.47;;
15354;SDS011;7777;52.254;9.618;2023-12-20T11:52:43;14.87;;;3.10;;
15354;SDS011;7777;52.254;9.618;2023-12-20T11:55:08;11.63;;;2.50;;
15354;SDS011;7777;52.254;9.618;2023-12-20T11:57:35;18.40;;;4.20;;
15354;SDS011;7777;52.254;9.618;2023-12-20T12:00:02;5.10;;;1.60;;
15354;SDS011;7777;52.254;9.618;2023-12-20T12:02:30;7.83;;;1.67;;
15354;SDS011;7777;52.254;9.618;2023-12-20T12:04:56;3.07;;;0.70;;
15354;SDS011;7777;52.254;9.618;2023-12-20T12:07:23;2.03;;;0.60;;
15354;SDS011;7777;52.254;9.618;2023-12-20T12:09:49;5.57;;;1.03;;
15354;SDS011;7777;52.254;9.618;2023-12-20T12:12:15;3.87;;;0.90;;
15354;SDS011;7777;52.254;9.618;2023-12-20T12:14:41;3.07;;;0.80;;
15354;SDS011;7777;52.254;9.618;2023-12-20T12:17:14;5.47;;;1.53;;
15354;SDS011;7777;52.254;9.618;2023-12-20T12:19:41;6.13;;;1.33;;
15354;SDS011;7777;52.254;9.618;2023-12-20T12:22:09;6.07;;;1.20;;
15354;SDS011;7777;52.254;9.618;2023-12-20T12:24:40;4.67;;;1.07;;
15354;SDS011;7777;52.254;9.618;2023-12-20T12:27:07;2.57;;;0.93;;
15354;SDS011;7777;52.254;9.618;2023-12-20T12:29:34;7.57;;;1.17;;
15354;SDS011;7777;52.254;9.618;2023-12-20T12:32:00;3.83;;;1.03;;
15354;SDS011;7777;52.254;9.618;2023-12-20T12:34:33;4.17;;;0.70;;
15354;SDS011;7777;52.254;9.618;2023-12-20T12:37:01;5.77;;;0.70;;
15354;SDS011;7777;52.254;9.618;2023-12-20T12:39:29;4.07;;;0.73;;
15354;SDS011;7777;52.254;9.618;2023-12-20T12:41:55;5.10;;;1.10;;
15354;SDS011;7777;52.254;9.618;2023-12-20T12:44:22;6.97;;;1.00;;
15354;SDS011;7777;52.254;9.618;2023-12-20T12:46:50;3.80;;;0.90;;
15354;SDS011;7777;52.254;9.618;2023-12-20T12:49:18;2.13;;;0.60;;
15354;SDS011;7777;52.254;9.618;2023-12-20T12:51:45;4.40;;;1.10;;
15354;SDS011;7777;52.254;9.618;2023-12-20T12:54:11;2.80;;;1.17;;
15354;SDS011;7777;52.254;9.618;2023-12-20T12:56:38;3.77;;;0.83;;
15354;SDS011;7777;52.254;9.618;2023-12-20T12:59:04;1.70;;;0.83;;
15354;SDS011;7777;52.254;9.618;2023-12-20T13:01:30;2.87;;;0.70;;
15354;SDS011;7777;52.254;9.618;2023-12-20T13:03:56;3.70;;;0.70;;
15354;SDS011;7777;52.254;9.618;2023-12-20T13:06:22;3.17;;;0.90;;
15354;SDS011;7777;52.254;9.618;2023-12-20T13:08:48;2.10;;;0.87;;
15354;SDS011;7777;52.254;9.618;2023-12-20T13:11:15;3.53;;;0.60;;
15354;SDS011;7777;52.254;9.618;2023-12-20T13:13:40;1.63;;;0.60;;
15354;SDS011;7777;52.254;9.618;2023-12-20T13:16:07;3.90;;;0.67;;
15354;SDS011;7777;52.254;9.618;2023-12-20T13:18:35;1.93;;;0.60;;
15354;SDS011;7777;52.254;9.618;2023-12-20T13:21:01;6.33;;;1.20;;
15354;SDS011;7777;52.254;9.618;2023-12-20T13:23:27;2.17;;;0.93;;
15354;SDS011;7777;52.254;9.618;2023-12-20T13:25:52;3.97;;;1.30;;
15354;SDS011;7777;52.254;9.618;2023-12-20T13:28:18;5.80;;;0.70;;
15354;SDS011;7777;52.254;9.618;2023-12-20T13:30:44;4.80;;;0.80;;
15354;SDS011;7777;52.254;9.618;2023-12-20T13:33:10;2.53;;;0.77;;
15354;SDS011;7777;52.254;9.618;2023-12-20T13:35:36;4.30;;;1.13;;
15354;SDS011;7777;52.254;9.618;2023-12-20T13:38:02;3.23;;;1.00;;
15354;SDS011;7777;52.254;9.618;2023-12-20T13:40:29;5.47;;;1.00;;
15354;SDS011;7777;52.254;9.618;2023-12-20T13:42:55;7.67;;;4.00;;
15354;SDS011;7777;52.254;9.618;2023-12-20T13:45:21;10.23;;;5.37;;
15354;SDS011;7777;52.254;9.618;2023-12-20T13:47:47;8.07;;;3.33;;
15354;SDS011;7777;52.254;9.618;2023-12-20T13:50:13;6.93;;;3.20;;
15354;SDS011;7777;52.254;9.618;2023-12-20T13:52:38;8.63;;;1.93;;
15354;SDS011;7777;52.254;9.618;2023-12-20T13:55:04;9.23;;;2.43;;
15354;SDS011;7777;52.254;9.618;2023-12-20T13:57:32;3.83;;;1.27;;
15354;SDS011;7777;52.254;9.618;2023-12-20T13:59:59;5.17;;;1.30;;
15354;SDS011;7777;52.254;9.618;2023-12-20T14:02:25;6.83;;;1.50;;
15354;SDS011;7777;52.254;9.618;2023-12-20T14:04:51;8.90;;;1.93;;
15354;SDS011;7777;52.254;9.618;2023-12-20T14:07:17;6.67;;;2.50;;
15354;SDS011;7777;52.254;9.618;2023-12-20T14:09:43;11.57;;;5.23;;
15354;SDS011;7777;52.254;9.618;2023-12-20T14:12:10;14.30;;;8.17;;
15354;SDS011;7777;52.254;9.618;2023-12-20T14:14:37;16.10;;;8.70;;
15354;SDS011;7777;52.254;9.618;2023-12-20T14:17:03;7.60;;;3.90;;
15354;SDS011;7777;52.254;9.618;2023-12-20T14:19:31;6.33;;;3.03;;
15354;SDS011;7777;52.254;9.618;2023-12-20T14:21:57;6.33;;;1.97;;
15354;SDS011;7777;52.254;9.618;2023-12-20T14:24:26;3.90;;;1.17;;
15354;SDS011;7777;52.254;9.618;2023-12-20T14:26:52;5.33;;;0.97;;
15354;SDS011;7777;52.254;9.618;2023-12-20T14:29:18;5.40;;;1.47;;
15354;SDS011;7777;52.254;9.618;2023-12-20T14:31:44;5.43;;;1.13;;
15354;SDS011;7777;52.254;9.618;2023-12-20T14:34:10;17.47;;;8.50;;
15354;SDS011;7777;52.254;9.618;2023-12-20T14:36:36;36.00;;;13.67;;
15354;SDS011;7777;52.254;9.618;2023-12-20T14:39:03;14.83;;;5.73;;
15354;SDS011;7777;52.254;9.618;2023-12-20T14:41:30;17.00;;;6.53;;
15354;SDS011;7777;52.254;9.618;2023-12-20T14:43:56;25.80;;;11.37;;
15354;SDS011;7777;52.254;9.618;2023-12-20T14:46:22;18.90;;;7.33;;
15354;SDS011;7777;52.254;9.618;2023-12-20T14:48:48;11.90;;;4.87;;
15354;SDS011;7777;52.254;9.618;2023-12-20T14:51:14;14.00;;;2.53;;
15354;SDS011;7777;52.254;9.618;2023-12-20T14:53:40;8.50;;;1.57;;
15354;SDS011;7777;52.254;9.618;2023-12-20T14:56:08;7.10;;;2.00;;
15354;SDS011;7777;52.254;9.618;2023-12-20T14:58:34;11.03;;;1.53;;
15354;SDS011;7777;52.254;9.618;2023-12-20T15:01:00;6.17;;;1.53;;